sensor_id;sensor_type;location;lat;lon;timestamp;pressure;altitude;pressure_sealevel;temperature;humidity
7200;BME280;3641;49.082;8.200;2022-12-18T00:01:23;101648.06;;;-6.33;83.38
7200;BME280;3641;49.082;8.200;2022-12-18T00:03:51;101640.56;;;-6.19;84.14
7200;BME280;3641;49.082;8.200;2022-12-18T00:06:18;101637.03;;;-5.91;84.21
7200;BME280;3641;49.082;8.200;2022-12-18T00:08:45;101641.34;;;-5.87;83.21
7200;BME280;3641;49.082;8.200;2022-12-18T00:11:13;101633.56;;;-5.93;84.24
7200;BME280;3641;49.082;8.200;2022-12-18T00:13:40;101622.38;;;-5.76;83.50
7200;BME280;3641;49.082;8.200;2022-12-18T00:16:12;101630.47;;;-5.79;83.46
7200;BME280;3641;49.082;8.200;2022-12-18T00:18:39;101632.34;;;-5.83;83.11
7200;BME280;3641;49.082;8.200;2022-12-18T00:21:07;101634.34;;;-5.90;84.05
7200;BME280;3641;49.082;8.200;2022-12-18T00:23:35;101629.59;;;-5.80;84.08
7200;BME280;3641;49.082;8.200;2022-12-18T00:26:04;101632.72;;;-5.95;82.93
7200;BME280;3641;49.082;8.200;2022-12-18T00:28:31;101630.47;;;-6.06;84.60
7200;BME280;3641;49.082;8.200;2022-12-18T00:31:01;101632.72;;;-5.95;84.30
7200;BME280;3641;49.082;8.200;2022-12-18T00:33:30;101648.22;;;-5.80;84.09
7200;BME280;3641;49.082;8.200;2022-12-18T00:36:00;101648.13;;;-5.77;82.70
7200;BME280;3641;49.082;8.200;2022-12-18T00:38:27;101651.00;;;-5.85;83.24
7200;BME280;3641;49.082;8.200;2022-12-18T00:40:53;101649.38;;;-5.89;82.16
7200;BME280;3641;49.082;8.200;2022-12-18T00:43:20;101642.09;;;-6.10;83.35
7200;BME280;3641;49.082;8.200;2022-12-18T00:45:45;101639.16;;;-6.01;84.17
7200;BME280;3641;49.082;8.200;2022-12-18T00:48:12;101643.00;;;-5.83;83.78
7200;BME280;3641;49.082;8.200;2022-12-18T00:50:39;101633.25;;;-5.84;82.54
7200;BME280;3641;49.082;8.200;2022-12-18T00:53:06;101642.22;;;-5.87;83.25
7200;BME280;3641;49.082;8.200;2022-12-18T00:55:32;101645.75;;;-5.86;84.12
7200;BME280;3641;49.082;8.200;2022-12-18T00:57:59;101643.28;;;-5.92;84.03
7200;BME280;3641;49.082;8.200;2022-12-18T01:00:26;101634.16;;;-5.84;83.11
7200;BME280;3641;49.082;8.200;2022-12-18T01:02:52;101644.13;;;-5.90;83.01
7200;BME280;3641;49.082;8.200;2022-12-18T01:05:19;101637.03;;;-5.91;83.40
7200;BME280;3641;49.082;8.200;2022-12-18T01:07:47;101641.47;;;-5.90;83.26
7200;BME280;3641;49.082;8.200;2022-12-18T01:10:13;101645.75;;;-5.86;82.68
7200;BME280;3641;49.082;8.200;2022-12-18T01:12:40;101647.28;;;-6.06;83.00
7200;BME280;3641;49.082;8.200;2022-12-18T01:15:07;101643.91;;;-5.84;83.13
7200;BME280;3641;49.082;8.200;2022-12-18T01:17:34;101635.91;;;-5.84;82.91
7200;BME280;3641;49.082;8.200;2022-12-18T01:20:00;101637.34;;;-6.00;83.50
7200;BME280;3641;49.082;8.200;2022-12-18T01:22:27;101632.03;;;-6.00;84.44
7200;BME280;3641;49.082;8.200;2022-12-18T01:24:55;101624.91;;;-5.72;83.08
7200;BME280;3641;49.082;8.200;2022-12-18T01:27:21;101631.13;;;-5.99;83.31
7200;BME280;3641;49.082;8.200;2022-12-18T01:29:48;101633.16;;;-5.81;83.62
7200;BME280;3641;49.082;8.200;2022-12-18T01:32:15;101633.13;;;-6.06;83.29
7200;BME280;3641;49.082;8.200;2022-12-18T01:34:41;101646.25;;;-6.02;82.80
7200;BME280;3641;49.082;8.200;2022-12-18T01:37:08;101653.53;;;-6.08;82.18
7200;BME280;3641;49.082;8.200;2022-12-18T01:39:34;101645.38;;;-6.02;82.49
7200;BME280;3641;49.082;8.200;2022-12-18T01:42:05;101649.19;;;-6.11;81.85
7200;BME280;3641;49.082;8.200;2022-12-18T01:45:00;101653.94;;;-5.94;83.19
7200;BME280;3641;49.082;8.200;2022-12-18T01:47:30;101647.09;;;-5.99;83.16
7200;BME280;3641;49.082;8.200;2022-12-18T01:49:59;101641.25;;;-5.84;82.76
7200;BME280;3641;49.082;8.200;2022-12-18T01:52:31;101637.59;;;-6.08;83.24
7200;BME280;3641;49.082;8.200;2022-12-18T01:54:59;101639.47;;;-6.12;82.70
7200;BME280;3641;49.082;8.200;2022-12-18T01:57:28;101647.13;;;-6.31;82.07
7200;BME280;3641;49.082;8.200;2022-12-18T01:59:57;101649.88;;;-6.34;83.99
7200;BME280;3641;49.082;8.200;2022-12-18T02:02:26;101652.63;;;-6.07;84.47
7200;BME280;3641;49.082;8.200;2022-12-18T02:04:52;101653.03;;;-5.93;84.03
7200;BME280;3641;49.082;8.200;2022-12-18T02:07:24;101654.84;;;-5.93;83.02
7200;BME280;3641;49.082;8.200;2022-12-18T02:09:55;101647.09;;;-5.99;83.41
7200;BME280;3641;49.082;8.200;2022-12-18T02:12:30;101650.03;;;-6.09;83.56
7200;BME280;3641;49.082;8.200;2022-12-18T02:15:06;101654.84;;;-5.93;81.86
7200;BME280;3641;49.082;8.200;2022-12-18T02:17:37;101650.38;;;-5.93;82.98
7200;BME280;3641;49.082;8.200;2022-12-18T02:20:12;101641.22;;;-6.11;82.01
7200;BME280;3641;49.082;8.200;2022-12-18T02:22:45;101647.28;;;-6.06;81.96
7200;BME280;3641;49.082;8.200;2022-12-18T02:28:16;101660.56;;;-6.06;83.54
7200;BME280;3641;49.082;8.200;2022-12-18T02:30:47;101661.78;;;-6.17;83.20
7200;BME280;3641;49.082;8.200;2022-12-18T02:33:15;101661.84;;;-5.91;82.41
7200;BME280;3641;49.082;8.200;2022-12-18T02:35:44;101659.00;;;-5.85;82.31
7200;BME280;3641;49.082;8.200;2022-12-18T02:38:12;101652.31;;;-5.96;83.27
7200;BME280;3641;49.082;8.200;2022-12-18T02:40:39;101653.22;;;-5.97;82.82
7200;BME280;3641;49.082;8.200;2022-12-18T02:43:10;101641.91;;;-6.04;82.86
7200;BME280;3641;49.082;8.200;2022-12-18T02:45:46;101639.47;;;-6.12;84.10
7200;BME280;3641;49.082;8.200;2022-12-18T02:48:13;101646.63;;;-6.14;84.43
7200;BME280;3641;49.082;8.200;2022-12-18T02:50:44;101652.69;;;-6.09;83.18
7200;BME280;3641;49.082;8.200;2022-12-18T02:53:17;101657.50;;;-5.93;83.08
7200;BME280;3641;49.082;8.200;2022-12-18T02:55:52;101652.94;;;-5.90;82.63
7200;BME280;3641;49.082;8.200;2022-12-18T02:58:28;101656.78;;;-5.98;82.59
7200;BME280;3641;49.082;8.200;2022-12-18T03:01:01;101656.25;;;-6.10;83.83
7200;BME280;3641;49.082;8.200;2022-12-18T03:03:31;101655.78;;;-5.96;83.80
7200;BME280;3641;49.082;8.200;2022-12-18T03:06:02;101659.66;;;-6.05;83.04
7200;BME280;3641;49.082;8.200;2022-12-18T03:08:33;101662.06;;;-5.97;83.00
7200;BME280;3641;49.082;8.200;2022-12-18T03:11:05;101660.59;;;-6.07;83.06
7200;BME280;3641;49.082;8.200;2022-12-18T03:13:36;101657.25;;;-5.86;83.01
7200;BME280;3641;49.082;8.200;2022-12-18T03:16:06;101656.81;;;-6.28;84.31
7200;BME280;3641;49.082;8.200;2022-12-18T03:18:35;101649.13;;;-6.08;83.06
7200;BME280;3641;49.082;8.200;2022-12-18T03:21:05;101648.59;;;-5.92;83.15
7200;BME280;3641;49.082;8.200;2022-12-18T03:23:35;101662.72;;;-5.90;82.83
7200;BME280;3641;49.082;8.200;2022-12-18T03:26:06;101658.00;;;-6.09;82.67
7200;BME280;3641;49.082;8.200;2022-12-18T03:28:37;101653.53;;;-6.08;82.88
7200;BME280;3641;49.082;8.200;2022-12-18T03:31:08;101649.88;;;-6.04;82.08
7200;BME280;3641;49.082;8.200;2022-12-18T03:33:38;101645.56;;;-6.08;82.72
7200;BME280;3641;49.082;8.200;2022-12-18T03:36:08;101648.78;;;-6.27;83.62
7200;BME280;3641;49.082;8.200;2022-12-18T03:38:34;101647.00;;;-6.26;83.32
7200;BME280;3641;49.082;8.200;2022-12-18T03:41:09;101660.19;;;-6.23;84.17
7200;BME280;3641;49.082;8.200;2022-12-18T03:43:44;101648.91;;;-6.02;83.02
7200;BME280;3641;49.082;8.200;2022-12-18T03:46:24;101648.13;;;-6.05;82.26
7200;BME280;3641;49.082;8.200;2022-12-18T03:48:59;101641.50;;;-6.20;81.73
7200;BME280;3641;49.082;8.200;2022-12-18T03:51:34;101639.69;;;-6.49;83.38
7200;BME280;3641;49.082;8.200;2022-12-18T03:54:05;101640.78;;;-6.25;83.87
7200;BME280;3641;49.082;8.200;2022-12-18T03:56:37;101642.03;;;-6.09;83.00
7200;BME280;3641;49.082;8.200;2022-12-18T03:59:06;101634.59;;;-6.27;83.40
7200;BME280;3641;49.082;8.200;2022-12-18T04:01:38;101642.72;;;-6.02;83.15
7200;BME280;3641;49.082;8.200;2022-12-18T04:04:06;101636.63;;;-6.06;82.68
7200;BME280;3641;49.082;8.200;2022-12-18T04:06:35;101645.50;;;-6.07;83.00
7200;BME280;3641;49.082;8.200;2022-12-18T04:09:02;101641.59;;;-6.23;84.09
7200;BME280;3641;49.082;8.200;2022-12-18T04:11:29;101641.81;;;-6.01;83.02
7200;BME280;3641;49.082;8.200;2022-12-18T04:13:56;101639.94;;;-5.97;82.17
7200;BME280;3641;49.082;8.200;2022-12-18T04:16:23;101645.09;;;-6.23;83.50
7200;BME280;3641;49.082;8.200;2022-12-18T04:18:51;101642.63;;;-6.29;83.65
7200;BME280;3641;49.082;8.200;2022-12-18T04:21:18;101637.22;;;-6.26;82.34
7200;BME280;3641;49.082;8.200;2022-12-18T04:23:45;101641.41;;;-6.17;83.14
7200;BME280;3641;49.082;8.200;2022-12-18T04:26:11;101630.16;;;-6.25;82.02
7200;BME280;3641;49.082;8.200;2022-12-18T04:28:38;101640.38;;;-6.13;81.92
7200;BME280;3641;49.082;8.200;2022-12-18T04:31:04;101641.94;;;-6.06;82.68
7200;BME280;3641;49.082;8.200;2022-12-18T04:33:31;101644.56;;;-6.04;82.14
7200;BME280;3641;49.082;8.200;2022-12-18T04:35:58;101639.25;;;-6.04;81.72
7200;BME280;3641;49.082;8.200;2022-12-18T04:38:25;101634.28;;;-6.16;81.93
7200;BME280;3641;49.082;8.200;2022-12-18T04:40:51;101639.06;;;-6.28;81.13
7200;BME280;3641;49.082;8.200;2022-12-18T04:43:18;101640.00;;;-6.30;83.08
7200;BME280;3641;49.082;8.200;2022-12-18T04:45:44;101647.91;;;-6.27;82.25
7200;BME280;3641;49.082;8.200;2022-12-18T04:48:11;101645.53;;;-6.36;82.65
7200;BME280;3641;49.082;8.200;2022-12-18T04:50:37;101643.78;;;-6.37;82.06
7200;BME280;3641;49.082;8.200;2022-12-18T04:53:05;101639.28;;;-6.35;81.47
7200;BME280;3641;49.082;8.200;2022-12-18T04:55:31;101648.50;;;-6.47;82.40
7200;BME280;3641;49.082;8.200;2022-12-18T04:57:58;101657.06;;;-6.37;81.83
7200;BME280;3641;49.082;8.200;2022-12-18T05:00:25;101654.75;;;-6.50;82.90
7200;BME280;3641;49.082;8.200;2022-12-18T05:02:51;101650.47;;;-6.54;82.34
7200;BME280;3641;49.082;8.200;2022-12-18T05:05:18;101643.56;;;-6.30;82.01
7200;BME280;3641;49.082;8.200;2022-12-18T05:07:44;101650.00;;;-6.39;81.94
7200;BME280;3641;49.082;8.200;2022-12-18T05:10:12;101647.34;;;-6.39;82.04
7200;BME280;3641;49.082;8.200;2022-12-18T05:12:39;101645.56;;;-6.38;82.81
7200;BME280;3641;49.082;8.200;2022-12-18T05:15:23;101647.81;;;-6.24;81.72
7200;BME280;3641;49.082;8.200;2022-12-18T05:17:49;101651.41;;;-6.57;82.30
7200;BME280;3641;49.082;8.200;2022-12-18T05:20:16;101652.66;;;-6.39;80.99
7200;BME280;3641;49.082;8.200;2022-12-18T05:22:43;101661.84;;;-6.50;81.43
7200;BME280;3641;49.082;8.200;2022-12-18T05:25:09;101658.03;;;-6.71;82.65
7200;BME280;3641;49.082;8.200;2022-12-18T05:27:37;101638.34;;;-6.64;82.63
7200;BME280;3641;49.082;8.200;2022-12-18T05:30:05;101643.31;;;-6.52;81.59
7200;BME280;3641;49.082;8.200;2022-12-18T05:32:31;101651.03;;;-6.76;82.10
7200;BME280;3641;49.082;8.200;2022-12-18T05:34:58;101651.28;;;-6.52;82.62
7200;BME280;3641;49.082;8.200;2022-12-18T05:37:24;101654.88;;;-6.54;81.09
7200;BME280;3641;49.082;8.200;2022-12-18T05:39:51;101648.44;;;-6.46;80.00
7200;BME280;3641;49.082;8.200;2022-12-18T05:42:17;101656.69;;;-6.55;81.31
7200;BME280;3641;49.082;8.200;2022-12-18T05:44:45;101650.72;;;-6.63;80.69
7200;BME280;3641;49.082;8.200;2022-12-18T05:47:12;101656.19;;;-6.69;80.93
7200;BME280;3641;49.082;8.200;2022-12-18T05:49:39;101661.22;;;-6.59;81.20
7200;BME280;3641;49.082;8.200;2022-12-18T05:52:05;101657.81;;;-6.97;80.76
7200;BME280;3641;49.082;8.200;2022-12-18T05:54:32;101658.47;;;-6.55;80.75
7200;BME280;3641;49.082;8.200;2022-12-18T05:56:59;101661.41;;;-6.66;80.74
7200;BME280;3641;49.082;8.200;2022-12-18T05:59:25;101671.25;;;-6.70;80.49
7200;BME280;3641;49.082;8.200;2022-12-18T06:01:53;101672.59;;;-6.55;80.27
7200;BME280;3641;49.082;8.200;2022-12-18T06:04:20;101672.16;;;-6.71;81.47
7200;BME280;3641;49.082;8.200;2022-12-18T06:06:46;101672.78;;;-6.61;80.79
7200;BME280;3641;49.082;8.200;2022-12-18T06:09:13;101672.81;;;-6.63;80.42
7200;BME280;3641;49.082;8.200;2022-12-18T06:11:39;101674.09;;;-6.76;80.71
7200;BME280;3641;49.082;8.200;2022-12-18T06:14:06;101673.16;;;-6.75;81.17
7200;BME280;3641;49.082;8.200;2022-12-18T06:16:33;101682.75;;;-6.69;79.58
7200;BME280;3641;49.082;8.200;2022-12-18T06:19:02;101685.34;;;-6.68;80.56
7200;BME280;3641;49.082;8.200;2022-12-18T06:21:30;101700.44;;;-6.68;79.89
7200;BME280;3641;49.082;8.200;2022-12-18T06:23:57;101702.31;;;-6.73;80.28
7200;BME280;3641;49.082;8.200;2022-12-18T06:26:24;101709.38;;;-6.72;79.26
7200;BME280;3641;49.082;8.200;2022-12-18T06:28:50;101706.13;;;-6.84;80.88
7200;BME280;3641;49.082;8.200;2022-12-18T06:31:17;101704.91;;;-7.41;80.86
7200;BME280;3641;49.082;8.200;2022-12-18T06:33:43;101703.81;;;-7.32;81.76
7200;BME280;3641;49.082;8.200;2022-12-18T06:36:12;101715.97;;;-7.23;80.94
7200;BME280;3641;49.082;8.200;2022-12-18T06:38:41;101711.09;;;-7.04;80.27
7200;BME280;3641;49.082;8.200;2022-12-18T06:41:08;101710.28;;;-7.08;79.68
7200;BME280;3641;49.082;8.200;2022-12-18T06:43:35;101719.38;;;-7.18;80.35
7200;BME280;3641;49.082;8.200;2022-12-18T06:46:02;101721.84;;;-7.10;78.86
7200;BME280;3641;49.082;8.200;2022-12-18T06:48:30;101722.59;;;-7.05;79.37
7200;BME280;3641;49.082;8.200;2022-12-18T06:50:57;101727.47;;;-7.24;79.64
7200;BME280;3641;49.082;8.200;2022-12-18T06:53:24;101732.97;;;-7.31;80.40
7200;BME280;3641;49.082;8.200;2022-12-18T06:55:51;101737.38;;;-7.31;80.90
7200;BME280;3641;49.082;8.200;2022-12-18T06:58:18;101734.09;;;-7.05;80.64
7200;BME280;3641;49.082;8.200;2022-12-18T07:00:44;101730.56;;;-7.41;80.31
7200;BME280;3641;49.082;8.200;2022-12-18T07:03:10;101730.13;;;-7.60;82.08
7200;BME280;3641;49.082;8.200;2022-12-18T07:05:39;101739.41;;;-7.42;81.83
7200;BME280;3641;49.082;8.200;2022-12-18T07:08:06;101742.78;;;-7.36;82.50
7200;BME280;3641;49.082;8.200;2022-12-18T07:10:40;101740.13;;;-6.98;80.97
7200;BME280;3641;49.082;8.200;2022-12-18T07:13:07;101745.06;;;-7.19;81.52
7200;BME280;3641;49.082;8.200;2022-12-18T07:15:33;101736.91;;;-7.11;81.80
7200;BME280;3641;49.082;8.200;2022-12-18T07:18:00;101726.72;;;-6.92;80.75
7200;BME280;3641;49.082;8.200;2022-12-18T07:20:26;101728.13;;;-7.13;80.83
7200;BME280;3641;49.082;8.200;2022-12-18T07:22:53;101733.97;;;-7.36;82.73
7200;BME280;3641;49.082;8.200;2022-12-18T07:25:19;101738.53;;;-7.05;81.46
7200;BME280;3641;49.082;8.200;2022-12-18T07:27:47;101743.53;;;-6.93;80.80
7200;BME280;3641;49.082;8.200;2022-12-18T07:30:13;101749.91;;;-7.00;80.42
7200;BME280;3641;49.082;8.200;2022-12-18T07:32:40;101746.25;;;-6.96;80.45
7200;BME280;3641;49.082;8.200;2022-12-18T07:35:06;101745.22;;;-6.89;82.02
7200;BME280;3641;49.082;8.200;2022-12-18T07:37:33;101739.47;;;-6.73;80.83
7200;BME280;3641;49.082;8.200;2022-12-18T07:39:59;101748.47;;;-6.78;80.73
7200;BME280;3641;49.082;8.200;2022-12-18T07:42:26;101750.00;;;-6.69;80.26
7200;BME280;3641;49.082;8.200;2022-12-18T07:44:59;101755.03;;;-6.58;81.06
7200;BME280;3641;49.082;8.200;2022-12-18T07:47:26;101759.19;;;-6.49;80.05
7200;BME280;3641;49.082;8.200;2022-12-18T07:49:52;101760.38;;;-6.60;82.65
7200;BME280;3641;49.082;8.200;2022-12-18T07:52:19;101764.16;;;-6.68;83.38
7200;BME280;3641;49.082;8.200;2022-12-18T07:54:46;101767.00;;;-6.76;83.00
7200;BME280;3641;49.082;8.200;2022-12-18T07:57:15;101771.69;;;-6.86;82.28
7200;BME280;3641;49.082;8.200;2022-12-18T07:59:42;101775.16;;;-6.84;84.53
7200;BME280;3641;49.082;8.200;2022-12-18T08:02:10;101771.34;;;-6.73;84.49
7200;BME280;3641;49.082;8.200;2022-12-18T08:04:36;101774.59;;;-6.62;82.61
7200;BME280;3641;49.082;8.200;2022-12-18T08:07:03;101771.31;;;-6.72;84.26
7200;BME280;3641;49.082;8.200;2022-12-18T08:09:29;101775.53;;;-6.63;83.92
7200;BME280;3641;49.082;8.200;2022-12-18T08:11:56;101780.28;;;-6.76;83.66
7200;BME280;3641;49.082;8.200;2022-12-18T08:14:22;101786.44;;;-6.76;84.99
7200;BME280;3641;49.082;8.200;2022-12-18T08:16:48;101783.59;;;-6.68;84.36
7200;BME280;3641;49.082;8.200;2022-12-18T08:19:16;101784.13;;;-6.53;84.17
7200;BME280;3641;49.082;8.200;2022-12-18T08:21:43;101782.47;;;-6.59;83.52
7200;BME280;3641;49.082;8.200;2022-12-18T08:24:09;101776.22;;;-6.57;84.16
7200;BME280;3641;49.082;8.200;2022-12-18T08:26:36;101774.66;;;-6.65;85.38
7200;BME280;3641;49.082;8.200;2022-12-18T08:29:02;101776.22;;;-6.57;84.92
7200;BME280;3641;49.082;8.200;2022-12-18T08:31:30;101774.19;;;-6.47;83.48
7200;BME280;3641;49.082;8.200;2022-12-18T08:33:57;101766.50;;;-6.58;83.82
7200;BME280;3641;49.082;8.200;2022-12-18T08:36:25;101755.53;;;-6.78;86.94
7200;BME280;3641;49.082;8.200;2022-12-18T08:38:51;101753.13;;;-6.87;88.26
7200;BME280;3641;49.082;8.200;2022-12-18T08:41:18;101746.06;;;-6.88;87.52
7200;BME280;3641;49.082;8.200;2022-12-18T08:43:45;101760.38;;;-6.96;88.13
7200;BME280;3641;49.082;8.200;2022-12-18T08:46:33;101754.00;;;-6.52;86.36
7200;BME280;3641;49.082;8.200;2022-12-18T08:49:00;101736.84;;;-6.41;86.08
7200;BME280;3641;49.082;8.200;2022-12-18T08:51:28;101732.41;;;-6.40;85.17
7200;BME280;3641;49.082;8.200;2022-12-18T08:53:54;101741.00;;;-6.63;86.56
7200;BME280;3641;49.082;8.200;2022-12-18T08:56:21;101739.47;;;-6.39;86.03
7200;BME280;3641;49.082;8.200;2022-12-18T08:58:51;101727.22;;;-6.45;86.20
7200;BME280;3641;49.082;8.200;2022-12-18T09:01:18;101722.53;;;-6.35;85.72
7200;BME280;3641;49.082;8.200;2022-12-18T09:03:47;101723.06;;;-6.22;86.21
7200;BME280;3641;49.082;8.200;2022-12-18T09:06:14;101726.75;;;-6.28;86.62
7200;BME280;3641;49.082;8.200;2022-12-18T09:08:43;101740.59;;;-6.49;85.50
7200;BME280;3641;49.082;8.200;2022-12-18T09:11:15;101743.97;;;-6.41;86.51
7200;BME280;3641;49.082;8.200;2022-12-18T09:13:41;101748.66;;;-6.51;88.21
7200;BME280;3641;49.082;8.200;2022-12-18T09:16:08;101744.47;;;-6.61;88.26
7200;BME280;3641;49.082;8.200;2022-12-18T09:18:35;101743.06;;;-6.42;86.34
7200;BME280;3641;49.082;8.200;2022-12-18T09:21:08;101755.38;;;-6.37;86.52
7200;BME280;3641;49.082;8.200;2022-12-18T09:23:35;101756.84;;;-6.60;88.04
7200;BME280;3641;49.082;8.200;2022-12-18T09:26:03;101772.69;;;-6.24;86.64
7200;BME280;3641;49.082;8.200;2022-12-18T09:28:29;101781.16;;;-6.41;86.64
7200;BME280;3641;49.082;8.200;2022-12-18T09:30:56;101781.38;;;-6.50;88.12
7200;BME280;3641;49.082;8.200;2022-12-18T09:33:22;101785.16;;;-6.26;87.31
7200;BME280;3641;49.082;8.200;2022-12-18T09:35:49;101780.06;;;-6.34;88.03
7200;BME280;3641;49.082;8.200;2022-12-18T09:38:17;101770.56;;;-6.11;87.40
7200;BME280;3641;49.082;8.200;2022-12-18T09:40:47;101763.31;;;-6.05;86.39
7200;BME280;3641;49.082;8.200;2022-12-18T09:43:18;101768.47;;;-6.00;85.22
7200;BME280;3641;49.082;8.200;2022-12-18T09:45:48;101768.31;;;-5.95;85.52
7200;BME280;3641;49.082;8.200;2022-12-18T09:48:21;101779.47;;;-6.12;85.97
7200;BME280;3641;49.082;8.200;2022-12-18T09:50:50;101775.59;;;-6.00;85.46
7200;BME280;3641;49.082;8.200;2022-12-18T09:53:19;101798.97;;;-6.13;86.20
7200;BME280;3641;49.082;8.200;2022-12-18T09:55:48;101803.41;;;-6.47;89.65
7200;BME280;3641;49.082;8.200;2022-12-18T09:58:23;101803.47;;;-6.15;87.91
7200;BME280;3641;49.082;8.200;2022-12-18T10:00:51;101793.09;;;-6.25;87.00
7200;BME280;3641;49.082;8.200;2022-12-18T10:03:17;101799.84;;;-6.13;85.96
7200;BME280;3641;49.082;8.200;2022-12-18T10:05:50;101800.66;;;-6.09;86.75
7200;BME280;3641;49.082;8.200;2022-12-18T10:08:23;101803.59;;;-5.89;85.93
7200;BME280;3641;49.082;8.200;2022-12-18T10:10:53;101806.84;;;-6.09;86.68
7200;BME280;3641;49.082;8.200;2022-12-18T10:13:26;101796.91;;;-6.02;86.44
7200;BME280;3641;49.082;8.200;2022-12-18T10:16:03;101793.28;;;-7.01;89.15
7200;BME280;3641;49.082;8.200;2022-12-18T10:18:49;101795.59;;;-6.87;91.64
7200;BME280;3641;49.082;8.200;2022-12-18T10:21:26;101781.81;;;-6.67;91.13
7200;BME280;3641;49.082;8.200;2022-12-18T10:24:02;101790.47;;;-6.95;90.05
7200;BME280;3641;49.082;8.200;2022-12-18T10:26:35;101785.13;;;-7.31;91.99
7200;BME280;3641;49.082;8.200;2022-12-18T10:29:08;101787.53;;;-7.20;91.45
7200;BME280;3641;49.082;8.200;2022-12-18T10:31:37;101782.22;;;-7.20;91.63
7200;BME280;3641;49.082;8.200;2022-12-18T10:34:03;101782.28;;;-6.86;91.44
7200;BME280;3641;49.082;8.200;2022-12-18T10:36:30;101785.97;;;-6.91;89.19
7200;BME280;3641;49.082;8.200;2022-12-18T10:39:14;101783.19;;;-6.51;89.54
7200;BME280;3641;49.082;8.200;2022-12-18T10:41:40;101785.84;;;-6.51;89.84
7200;BME280;3641;49.082;8.200;2022-12-18T10:44:16;101787.69;;;-6.89;90.39
7200;BME280;3641;49.082;8.200;2022-12-18T10:46:44;101776.34;;;-6.61;90.27
7200;BME280;3641;49.082;8.200;2022-12-18T10:49:19;101771.16;;;-6.66;90.90
7200;BME280;3641;49.082;8.200;2022-12-18T10:51:47;101768.41;;;-6.28;89.66
7200;BME280;3641;49.082;8.200;2022-12-18T10:54:16;101767.22;;;-6.18;88.51
7200;BME280;3641;49.082;8.200;2022-12-18T10:56:43;101772.91;;;-6.32;88.44
7200;BME280;3641;49.082;8.200;2022-12-18T10:59:13;101777.38;;;-6.01;87.29
7200;BME280;3641;49.082;8.200;2022-12-18T11:01:49;101777.50;;;-6.06;86.27
7200;BME280;3641;49.082;8.200;2022-12-18T11:04:18;101781.25;;;-6.13;87.11
7200;BME280;3641;49.082;8.200;2022-12-18T11:06:54;101777.13;;;-5.93;87.68
7200;BME280;3641;49.082;8.200;2022-12-18T11:09:22;101776.72;;;-5.79;86.81
7200;BME280;3641;49.082;8.200;2022-12-18T11:11:49;101781.00;;;-5.74;86.67
7200;BME280;3641;49.082;8.200;2022-12-18T11:14:22;101783.88;;;-5.81;86.66
7200;BME280;3641;49.082;8.200;2022-12-18T11:16:50;101774.22;;;-5.86;86.81
7200;BME280;3641;49.082;8.200;2022-12-18T11:19:28;101777.25;;;-5.96;85.92
7200;BME280;3641;49.082;8.200;2022-12-18T11:21:56;101771.09;;;-6.30;88.31
7200;BME280;3641;49.082;8.200;2022-12-18T11:24:28;101767.38;;;-5.93;86.95
7200;BME280;3641;49.082;8.200;2022-12-18T11:26:57;101760.44;;;-5.69;86.40
7200;BME280;3641;49.082;8.200;2022-12-18T11:29:31;101747.00;;;-5.64;86.08
7200;BME280;3641;49.082;8.200;2022-12-18T11:32:24;101745.03;;;-5.57;85.23
7200;BME280;3641;49.082;8.200;2022-12-18T11:34:55;101753.69;;;-5.51;87.38
7200;BME280;3641;49.082;8.200;2022-12-18T11:37:25;101758.06;;;-5.48;86.25
7200;BME280;3641;49.082;8.200;2022-12-18T11:39:56;101758.38;;;-5.59;85.89
7200;BME280;3641;49.082;8.200;2022-12-18T11:42:25;101750.50;;;-6.22;88.63
7200;BME280;3641;49.082;8.200;2022-12-18T11:44:58;101742.69;;;-5.68;88.18
7200;BME280;3641;49.082;8.200;2022-12-18T11:47:29;101737.84;;;-5.55;86.30
7200;BME280;3641;49.082;8.200;2022-12-18T11:50:01;101737.31;;;-5.67;87.36
7200;BME280;3641;49.082;8.200;2022-12-18T11:52:33;101746.56;;;-5.49;86.48
7200;BME280;3641;49.082;8.200;2022-12-18T11:55:11;101747.75;;;-5.31;86.02
7200;BME280;3641;49.082;8.200;2022-12-18T11:57:42;101736.63;;;-5.43;85.52
7200;BME280;3641;49.082;8.200;2022-12-18T12:00:16;101718.09;;;-5.47;86.43
7200;BME280;3641;49.082;8.200;2022-12-18T12:03:08;101706.88;;;-5.28;85.40
7200;BME280;3641;49.082;8.200;2022-12-18T12:05:46;101710.16;;;-5.20;86.18
7200;BME280;3641;49.082;8.200;2022-12-18T12:08:22;101720.84;;;-5.21;85.37
7200;BME280;3641;49.082;8.200;2022-12-18T12:11:01;101722.88;;;-5.30;85.60
7200;BME280;3641;49.082;8.200;2022-12-18T12:13:38;101729.44;;;-5.70;86.17
7200;BME280;3641;49.082;8.200;2022-12-18T12:16:16;101718.38;;;-5.56;86.20
7200;BME280;3641;49.082;8.200;2022-12-18T12:18:53;101721.13;;;-5.31;87.23
7200;BME280;3641;49.082;8.200;2022-12-18T12:21:27;101714.47;;;-5.17;86.02
7200;BME280;3641;49.082;8.200;2022-12-18T12:24:00;101722.78;;;-5.55;85.57
7200;BME280;3641;49.082;8.200;2022-12-18T12:26:33;101725.97;;;-5.43;86.63
7200;BME280;3641;49.082;8.200;2022-12-18T12:29:17;101726.97;;;-5.19;85.51
7200;BME280;3641;49.082;8.200;2022-12-18T12:32:07;101718.19;;;-5.21;85.96
7200;BME280;3641;49.082;8.200;2022-12-18T12:34:46;101722.31;;;-5.13;85.23
7200;BME280;3641;49.082;8.200;2022-12-18T12:37:23;101722.31;;;-5.13;85.87
7200;BME280;3641;49.082;8.200;2022-12-18T12:39:52;101729.16;;;-5.04;84.40
7200;BME280;3641;49.082;8.200;2022-12-18T12:42:26;101723.81;;;-5.04;85.58
7200;BME280;3641;49.082;8.200;2022-12-18T12:45:17;101723.66;;;-5.26;85.98
7200;BME280;3641;49.082;8.200;2022-12-18T12:47:48;101710.06;;;-4.92;84.54
7200;BME280;3641;49.082;8.200;2022-12-18T12:50:19;101712.06;;;-4.98;85.77
7200;BME280;3641;49.082;8.200;2022-12-18T12:52:48;101706.50;;;-5.17;85.16
7200;BME280;3641;49.082;8.200;2022-12-18T12:55:20;101702.50;;;-5.31;85.82
7200;BME280;3641;49.082;8.200;2022-12-18T12:57:54;101705.25;;;-5.05;85.43
7200;BME280;3641;49.082;8.200;2022-12-18T13:00:22;101695.41;;;-5.03;85.97
7200;BME280;3641;49.082;8.200;2022-12-18T13:02:59;101684.94;;;-4.83;84.49
7200;BME280;3641;49.082;8.200;2022-12-18T13:05:34;101691.63;;;-4.96;85.63
7200;BME280;3641;49.082;8.200;2022-12-18T13:08:07;101681.63;;;-4.89;86.77
7200;BME280;3641;49.082;8.200;2022-12-18T13:10:36;101675.34;;;-4.88;85.29
7200;BME280;3641;49.082;8.200;2022-12-18T13:13:05;101678.06;;;-4.90;86.15
7200;BME280;3641;49.082;8.200;2022-12-18T13:15:36;101667.31;;;-4.87;86.86
7200;BME280;3641;49.082;8.200;2022-12-18T13:18:14;101659.00;;;-4.78;86.67
7200;BME280;3641;49.082;8.200;2022-12-18T13:20:44;101658.13;;;-4.78;86.74
7200;BME280;3641;49.082;8.200;2022-12-18T13:23:28;101654.91;;;-4.63;84.49
7200;BME280;3641;49.082;8.200;2022-12-18T13:25:56;101658.56;;;-4.65;83.78